createdAt,value
2019-05-22T00:02:27.233Z,25.80
2019-05-22T00:05:17.058Z,26.27
2019-05-22T00:07:48.954Z,26.12
2019-05-22T00:10:25.437Z,29.52
2019-05-22T00:12:57.215Z,28.30
2019-05-22T00:15:29.758Z,28.87
2019-05-22T00:18:01.547Z,27.62
2019-05-22T00:20:31.801Z,27.77
2019-05-22T00:23:04.127Z,28.35
2019-05-22T00:25:35.721Z,28.27
2019-05-22T00:28:07.344Z,27.62
2019-05-22T00:30:38.914Z,28.38
2019-05-22T00:33:09.912Z,30.30
2019-05-22T00:35:41.559Z,29.45
2019-05-22T00:38:12.309Z,29.15
2019-05-22T00:40:46.768Z,29.90
2019-05-22T00:43:21.226Z,32.50
2019-05-22T00:45:52.718Z,30.60
2019-05-22T00:48:23.941Z,28.52
2019-05-22T00:51:05.483Z,28.25
2019-05-22T00:53:55.486Z,28.42
2019-05-22T00:56:37.158Z,29.90
2019-05-22T00:59:22.119Z,31.00
2019-05-22T01:01:54.405Z,28.57
2019-05-22T01:04:25.910Z,30.27
2019-05-22T01:06:57.983Z,26.68
2019-05-22T01:09:29.553Z,27.07
2019-05-22T01:12:00.780Z,27.58
2019-05-22T01:14:42.300Z,27.65
2019-05-22T01:17:02.830Z,25.57
2019-05-22T01:19:34.594Z,26.02
2019-05-22T01:22:06.486Z,24.95
2019-05-22T01:24:37.983Z,25.20
2019-05-22T01:27:10.056Z,26.30
2019-05-22T01:29:40.370Z,26.68
2019-05-22T01:32:20.914Z,24.98
2019-05-22T01:34:51.812Z,27.32
2019-05-22T01:37:22.443Z,24.90
2019-05-22T01:39:54.278Z,25.25
2019-05-22T01:42:26.915Z,24.85
2019-05-22T01:45:05.558Z,27.32
2019-05-22T01:47:43.001Z,26.50
2019-05-22T01:50:18.847Z,27.98
2019-05-22T01:52:48.701Z,25.23
2019-05-22T01:55:20.221Z,25.70
2019-05-22T01:57:51.342Z,26.05
2019-05-22T02:00:21.770Z,26.87
2019-05-22T02:02:52.408Z,25.27
2019-05-22T02:05:23.041Z,26.82
2019-05-22T02:07:54.490Z,24.98
2019-05-22T02:10:33.662Z,28.55
2019-05-22T02:13:03.531Z,25.17
2019-05-22T02:15:35.332Z,28.23
2019-05-22T02:18:11.039Z,25.72
2019-05-22T02:20:42.509Z,26.65
2019-05-22T02:23:12.666Z,26.25
2019-05-22T02:25:42.599Z,27.90
2019-05-22T02:28:12.624Z,24.65
2019-05-22T02:30:44.513Z,25.10
2019-05-22T02:33:14.467Z,26.48
2019-05-22T02:35:45.714Z,26.77
2019-05-22T02:38:16.963Z,25.68
2019-05-22T02:40:47.550Z,23.22
2019-05-22T02:43:18.752Z,24.10
2019-05-22T02:45:49.883Z,22.77
2019-05-22T02:48:21.402Z,24.07
2019-05-22T02:50:52.411Z,22.93
2019-05-22T02:53:22.741Z,20.90
2019-05-22T02:55:53.334Z,21.55
2019-05-22T02:58:24.440Z,20.70
2019-05-22T03:01:00.195Z,21.33
2019-05-22T03:03:32.263Z,22.32
2019-05-22T03:06:04.339Z,21.42
2019-05-22T03:08:54.302Z,23.60
2019-05-22T03:11:25.054Z,23.15
2019-05-22T03:13:59.785Z,22.75
2019-05-22T03:16:50.028Z,20.08
2019-05-22T03:19:32.555Z,22.50
2019-05-22T03:22:25.182Z,21.68
2019-05-22T03:24:56.857Z,23.73
2019-05-22T03:27:40.533Z,21.85
2019-05-22T03:30:22.280Z,22.25
2019-05-22T03:32:53.914Z,22.70
2019-05-22T03:35:25.991Z,26.80
2019-05-22T03:37:57.586Z,25.23
2019-05-22T03:40:28.889Z,24.85
2019-05-22T03:43:05.695Z,26.62
2019-05-22T03:45:36.227Z,25.02
2019-05-22T03:48:06.461Z,24.18
2019-05-22T03:50:36.763Z,22.62
2019-05-22T03:53:15.668Z,24.35
2019-05-22T03:55:46.552Z,24.98
2019-05-22T03:58:16.929Z,24.57
2019-05-22T04:00:47.523Z,26.80
2019-05-22T04:03:17.833Z,25.57
2019-05-22T04:05:48.889Z,24.63
2019-05-22T04:08:20.220Z,24.80
2019-05-22T04:10:59.186Z,24.87
2019-05-22T04:13:29.057Z,27.30
2019-05-22T04:16:00.635Z,26.23
2019-05-22T04:18:30.960Z,22.45
2019-05-22T04:21:01.655Z,25.75
2019-05-22T04:23:31.529Z,25.48
2019-05-22T04:26:01.854Z,28.73
2019-05-22T04:28:31.982Z,26.02
2019-05-22T04:31:02.513Z,26.25
2019-05-22T04:33:32.668Z,26.57
2019-05-22T04:36:03.073Z,29.05
2019-05-22T04:38:33.411Z,29.55
2019-05-22T04:41:04.643Z,30.92
2019-05-22T04:43:35.287Z,29.52
2019-05-22T04:46:06.521Z,26.87
2019-05-22T04:48:36.519Z,26.35
2019-05-22T04:51:25.376Z,27.32
2019-05-22T04:53:56.686Z,31.52
2019-05-22T04:56:26.609Z,31.68
2019-05-22T04:58:57.129Z,34.88
2019-05-22T05:01:28.361Z,30.37
2019-05-22T05:03:58.923Z,28.95
2019-05-22T05:06:30.482Z,29.32
2019-05-22T05:09:00.431Z,27.27
2019-05-22T05:11:30.666Z,26.87
2019-05-22T05:14:00.535Z,27.32
2019-05-22T05:16:30.386Z,28.90
2019-05-22T05:19:00.748Z,27.58
2019-05-22T05:21:31.038Z,31.80
2019-05-22T05:24:00.958Z,28.12
2019-05-22T05:26:32.134Z,29.42
2019-05-22T05:29:02.130Z,30.80
2019-05-22T05:31:32.358Z,29.37
2019-05-22T05:34:08.630Z,31.73
2019-05-22T05:36:39.234Z,30.75
2019-05-22T05:39:34.039Z,32.23
2019-05-22T05:42:03.952Z,33.00
2019-05-22T05:44:35.638Z,34.60
2019-05-22T05:47:06.277Z,29.27
2019-05-22T05:49:36.126Z,31.90
2019-05-22T05:52:07.321Z,33.83
2019-05-22T05:54:37.914Z,32.67
2019-05-22T05:57:38.494Z,34.27
2019-05-22T06:00:11.341Z,29.18
2019-05-22T06:02:55.732Z,32.95
2019-05-22T06:05:13.157Z,32.73
2019-05-22T06:07:43.011Z,32.30
2019-05-22T06:10:29.838Z,35.10
2019-05-22T06:13:00.552Z,29.70
2019-05-22T06:15:47.622Z,36.53
2019-05-22T06:18:34.713Z,34.27
2019-05-22T06:21:06.266Z,36.58
2019-05-22T06:23:44.551Z,31.57
2019-05-22T06:26:18.266Z,36.93
2019-05-22T06:28:48.093Z,32.98
2019-05-22T06:31:44.178Z,35.75
2019-05-22T06:34:14.034Z,24.47
2019-05-22T06:36:44.253Z,33.38
2019-05-22T06:39:14.490Z,36.53
2019-05-22T06:41:45.413Z,30.50
2019-05-22T06:44:31.441Z,36.10
2019-05-22T06:47:01.609Z,38.53
2019-05-22T06:49:35.132Z,42.93
2019-05-22T06:52:06.149Z,41.05
2019-05-22T06:54:36.677Z,38.15
2019-05-22T06:57:09.010Z,38.73
2019-05-22T06:59:39.603Z,38.98
2019-05-22T07:02:10.449Z,36.70
2019-05-22T07:04:40.658Z,38.90
2019-05-22T07:07:12.542Z,36.53
2019-05-22T07:09:44.609Z,40.08
2019-05-22T07:12:15.736Z,40.67
2019-05-22T07:15:02.533Z,37.98
2019-05-22T07:17:32.694Z,33.53
2019-05-22T07:20:04.649Z,37.50
2019-05-22T07:22:34.907Z,34.90
2019-05-22T07:25:08.191Z,36.90
2019-05-22T07:30:07.971Z,39.78
2019-05-22T07:32:38.145Z,36.75
2019-05-22T07:35:08.581Z,41.00
2019-05-22T07:37:40.962Z,39.33
2019-05-22T07:40:11.258Z,36.95
2019-05-22T07:42:41.135Z,36.83
2019-05-22T07:45:11.374Z,41.18
2019-05-22T07:47:43.028Z,38.40
2019-05-22T07:50:13.441Z,40.90
2019-05-22T07:52:43.376Z,39.95
2019-05-22T07:55:13.667Z,40.23
2019-05-22T07:57:43.513Z,40.17
2019-05-22T08:00:13.701Z,43.02
2019-05-22T08:02:44.439Z,39.50
2019-05-22T08:05:14.830Z,39.63
2019-05-22T08:07:44.915Z,40.08
2019-05-22T08:10:15.962Z,37.83
2019-05-22T08:12:45.814Z,37.13
2019-05-22T08:15:16.239Z,36.42
2019-05-22T08:17:46.099Z,38.65
2019-05-22T08:20:15.965Z,37.00
2019-05-22T08:22:46.621Z,37.15
2019-05-22T08:25:16.571Z,34.08
2019-05-22T08:27:46.785Z,30.35
2019-05-22T08:30:17.110Z,32.95
2019-05-22T08:32:47.406Z,29.63
2019-05-22T08:35:17.290Z,31.27
2019-05-22T08:37:47.593Z,29.57
2019-05-22T08:40:19.412Z,31.57
2019-05-22T08:42:50.135Z,29.35
2019-05-22T08:45:21.637Z,27.02
2019-05-22T08:47:51.574Z,25.85
2019-05-22T08:50:24.057Z,27.73
2019-05-22T08:52:54.011Z,27.50
2019-05-22T08:55:25.630Z,27.20
2019-05-22T08:57:55.750Z,26.17
2019-05-22T09:00:27.048Z,22.62
2019-05-22T09:02:57.294Z,24.92
2019-05-22T09:05:27.174Z,27.30
2019-05-22T09:07:57.147Z,24.47
2019-05-22T09:10:27.141Z,26.05
2019-05-22T09:12:57.366Z,24.27
2019-05-22T09:15:28.787Z,23.70
2019-05-22T09:17:59.702Z,24.43
2019-05-22T09:20:30.344Z,19.25
2019-05-22T09:23:00.682Z,18.75
2019-05-22T09:25:31.606Z,18.10
2019-05-22T09:28:01.992Z,17.82
2019-05-22T09:30:31.929Z,13.80
2019-05-22T09:33:02.073Z,13.08
2019-05-22T09:35:32.602Z,11.95
2019-05-22T09:38:02.916Z,12.75
2019-05-22T09:40:33.439Z,11.55
2019-05-22T09:43:04.187Z,9.18
2019-05-22T09:45:34.286Z,8.33
2019-05-22T09:48:05.706Z,5.00
2019-05-22T09:50:37.086Z,5.13
2019-05-22T09:53:07.860Z,5.12
2019-05-22T09:55:37.842Z,5.95
2019-05-22T09:58:07.883Z,5.42
2019-05-22T10:00:38.070Z,5.00
2019-05-22T10:03:08.787Z,5.53
2019-05-22T10:05:38.808Z,7.03
2019-05-22T10:08:08.911Z,5.80
2019-05-22T10:10:39.142Z,4.60
2019-05-22T10:13:09.166Z,4.97
2019-05-22T10:15:39.019Z,5.70
2019-05-22T10:18:09.241Z,6.03
2019-05-22T10:20:39.541Z,5.20
2019-05-22T10:23:15.478Z,6.85
2019-05-22T10:25:41.754Z,6.47
2019-05-22T10:28:11.979Z,5.90
2019-05-22T10:30:41.825Z,5.62
2019-05-22T10:33:11.954Z,6.42
2019-05-22T10:35:41.917Z,7.87
2019-05-22T10:38:11.802Z,6.25
2019-05-22T10:40:41.658Z,6.67
2019-05-22T10:43:11.871Z,7.12
2019-05-22T10:45:42.189Z,6.12
2019-05-22T10:48:12.130Z,7.08
2019-05-22T10:50:42.006Z,6.67
2019-05-22T10:53:12.316Z,6.17
2019-05-22T10:55:42.565Z,9.03
2019-05-22T10:58:12.797Z,8.10
2019-05-22T11:00:42.711Z,8.00
2019-05-22T11:03:14.156Z,7.47
2019-05-22T11:05:45.998Z,7.03
2019-05-22T11:08:15.933Z,7.97
2019-05-22T11:10:46.307Z,8.03
2019-05-22T11:13:16.427Z,9.15
2019-05-22T11:15:46.354Z,9.63
2019-05-22T11:18:16.206Z,8.80
2019-05-22T11:20:46.078Z,8.43
2019-05-22T11:23:15.991Z,8.43
2019-05-22T11:25:45.866Z,8.70
2019-05-22T11:28:15.788Z,9.68
2019-05-22T11:30:45.727Z,8.85
2019-05-22T11:33:15.626Z,9.45
2019-05-22T11:35:45.721Z,8.45
2019-05-22T11:38:15.558Z,7.37
2019-05-22T11:40:45.753Z,7.67
2019-05-22T11:43:15.980Z,7.37
2019-05-22T11:45:45.999Z,7.60
2019-05-22T11:48:16.046Z,7.72
2019-05-22T11:50:46.469Z,6.90
2019-05-22T11:53:16.331Z,7.05
2019-05-22T11:55:46.693Z,6.22
2019-05-22T11:58:17.041Z,5.90
2019-05-22T12:00:47.419Z,7.30
2019-05-22T12:03:17.641Z,7.55
2019-05-22T12:05:48.086Z,7.40
2019-05-22T12:08:17.999Z,7.83
2019-05-22T12:10:48.117Z,6.85
2019-05-22T12:13:18.040Z,6.78
2019-05-22T12:15:47.961Z,6.90
2019-05-22T12:18:18.042Z,7.60
2019-05-22T12:20:48.157Z,7.90
2019-05-22T12:23:18.031Z,8.43
2019-05-22T12:25:47.884Z,9.28
2019-05-22T12:28:18.224Z,7.65
2019-05-22T12:30:48.071Z,7.78
2019-05-22T12:33:18.342Z,8.30
2019-05-22T12:35:49.402Z,7.72
2019-05-22T12:38:19.612Z,8.55
2019-05-22T12:40:50.245Z,8.53
2019-05-22T12:43:20.253Z,8.00
2019-05-22T12:45:50.297Z,7.87
2019-05-22T12:48:20.145Z,8.75
2019-05-22T12:50:50.475Z,8.78
2019-05-22T12:53:20.691Z,7.95
2019-05-22T12:55:50.551Z,7.83
2019-05-22T12:58:20.405Z,8.45
2019-05-22T13:00:50.703Z,9.13
2019-05-22T13:03:20.835Z,11.90
2019-05-22T13:05:51.823Z,8.85
2019-05-22T13:08:21.862Z,8.50
2019-05-22T13:10:53.220Z,8.45
2019-05-22T13:13:23.756Z,8.90
2019-05-22T13:15:54.064Z,9.38
2019-05-22T13:18:24.290Z,8.70
2019-05-22T13:20:54.228Z,10.72
2019-05-22T13:23:24.899Z,9.38
2019-05-22T13:25:55.109Z,10.95
2019-05-22T13:28:26.093Z,9.68
2019-05-22T13:30:56.615Z,9.33
2019-05-22T13:33:27.843Z,9.50
2019-05-22T13:35:57.971Z,10.35
2019-05-22T13:38:27.838Z,10.00
2019-05-22T13:40:57.785Z,10.23
2019-05-22T13:43:28.879Z,10.98
2019-05-22T13:45:58.802Z,11.15
2019-05-22T13:48:28.947Z,10.60
2019-05-22T13:50:59.849Z,10.75
2019-05-22T13:53:30.158Z,9.55
2019-05-22T13:56:00.785Z,11.88
2019-05-22T13:58:30.936Z,11.10
2019-05-22T14:01:00.783Z,9.40
2019-05-22T14:03:31.146Z,11.55
2019-05-22T14:06:01.593Z,10.72
2019-05-22T14:08:31.456Z,12.55
2019-05-22T14:11:01.483Z,11.03
2019-05-22T14:13:31.327Z,9.98
2019-05-22T14:16:01.188Z,10.98
2019-05-22T14:18:31.064Z,10.68
2019-05-22T14:21:01.010Z,11.10
2019-05-22T14:23:30.943Z,11.60
2019-05-22T14:26:00.869Z,11.15
2019-05-22T14:28:31.303Z,10.00
2019-05-22T14:31:01.163Z,9.10
2019-05-22T14:33:31.117Z,10.08
2019-05-22T14:36:02.386Z,8.45
2019-05-22T14:38:32.822Z,11.30
2019-05-22T14:41:03.056Z,12.03
2019-05-22T14:43:32.931Z,11.43
2019-05-22T14:46:03.061Z,8.98
2019-05-22T14:48:33.772Z,8.35
2019-05-22T14:51:04.114Z,9.73
2019-05-22T14:53:35.028Z,9.65
2019-05-22T14:56:10.577Z,10.25
2019-05-22T14:58:39.273Z,9.48
2019-05-22T15:01:10.098Z,9.05
2019-05-22T15:03:40.575Z,10.65
2019-05-22T15:06:10.465Z,9.85
2019-05-22T15:08:40.322Z,10.40
2019-05-22T15:11:10.293Z,9.88
2019-05-22T15:13:40.479Z,10.25
2019-05-22T15:16:10.371Z,10.88
2019-05-22T15:18:40.353Z,10.75
2019-05-22T15:21:11.846Z,10.82
2019-05-22T15:23:42.084Z,11.28
2019-05-22T15:26:11.990Z,12.05
2019-05-22T15:28:42.026Z,11.30
2019-05-22T15:31:11.913Z,11.43
2019-05-22T15:33:42.220Z,11.68
2019-05-22T15:36:14.317Z,12.07
2019-05-22T15:38:44.470Z,11.88
2019-05-22T15:41:15.046Z,11.08
2019-05-22T15:43:51.244Z,9.95
2019-05-22T15:46:17.422Z,10.20
2019-05-22T15:48:48.050Z,9.93
2019-05-22T15:51:21.313Z,9.05
2019-05-22T15:56:20.521Z,9.30
2019-05-22T15:58:51.396Z,9.95
2019-05-22T16:01:21.981Z,9.45
2019-05-22T16:03:51.910Z,8.78
2019-05-22T16:06:23.566Z,9.33
2019-05-22T16:08:53.486Z,9.40
2019-05-22T16:11:23.641Z,9.00
2019-05-22T16:13:54.477Z,10.20
2019-05-22T16:16:24.931Z,11.03
2019-05-22T16:18:55.166Z,9.00
2019-05-22T16:21:26.076Z,8.05
2019-05-22T16:23:57.096Z,9.45
2019-05-22T16:26:27.611Z,9.60
2019-05-22T16:28:57.467Z,9.58
2019-05-22T16:31:27.335Z,8.70
2019-05-22T16:33:57.195Z,8.90
2019-05-22T16:36:27.391Z,8.70
2019-05-22T16:38:57.335Z,10.63
2019-05-22T16:41:27.645Z,8.60
2019-05-22T16:43:57.535Z,10.05
2019-05-22T16:46:28.059Z,8.20
2019-05-22T16:48:58.329Z,8.15
2019-05-22T16:51:28.921Z,8.68
2019-05-22T16:54:02.040Z,7.75
2019-05-22T16:56:32.171Z,8.88
2019-05-22T16:59:02.399Z,10.00
2019-05-22T17:01:32.468Z,9.00
2019-05-22T17:04:03.125Z,8.38
2019-05-22T17:06:33.542Z,7.10
2019-05-22T17:09:05.306Z,8.08
2019-05-22T17:11:35.339Z,7.97
2019-05-22T17:14:06.930Z,7.55
2019-05-22T17:16:39.199Z,9.13
2019-05-22T17:19:25.794Z,7.90
2019-05-22T17:21:40.646Z,8.13
2019-05-22T17:24:10.718Z,7.00
2019-05-22T17:26:41.052Z,6.83
2019-05-22T17:29:11.170Z,7.75
2019-05-22T17:31:41.605Z,7.30
2019-05-22T17:34:29.745Z,7.12
2019-05-22T17:36:59.678Z,6.20
2019-05-22T17:39:31.510Z,7.53
2019-05-22T17:42:01.905Z,8.30
2019-05-22T17:44:32.573Z,6.83
2019-05-22T17:47:06.189Z,7.53
2019-05-22T17:49:34.815Z,7.28
2019-05-22T17:52:05.448Z,7.55
2019-05-22T17:54:35.333Z,8.78
2019-05-22T17:57:05.568Z,9.48
2019-05-22T17:59:36.502Z,7.78
2019-05-22T18:02:07.994Z,7.05
2019-05-22T18:04:38.211Z,7.08
2019-05-22T18:07:08.934Z,4.95
2019-05-22T18:09:38.791Z,4.97
2019-05-22T18:12:08.911Z,5.15
2019-05-22T18:14:38.893Z,4.25
2019-05-22T18:17:09.017Z,2.85
2019-05-22T18:19:38.862Z,3.22
2019-05-22T18:22:10.417Z,2.25
2019-05-22T18:24:40.642Z,2.52
2019-05-22T18:27:10.479Z,1.90
2019-05-22T18:29:40.769Z,2.87
2019-05-22T18:32:11.576Z,2.25
2019-05-22T18:34:41.821Z,3.55
2019-05-22T18:37:11.662Z,2.42
2019-05-22T18:39:41.578Z,2.30
2019-05-22T18:42:12.817Z,2.15
2019-05-22T18:44:43.024Z,2.15
2019-05-22T18:47:12.871Z,2.22
2019-05-22T18:49:42.723Z,2.55
2019-05-22T18:52:12.751Z,2.50
2019-05-22T18:54:42.594Z,3.17
2019-05-22T18:57:12.802Z,3.65
2019-05-22T18:59:42.735Z,4.08
2019-05-22T19:02:14.063Z,2.75
2019-05-22T19:04:44.007Z,3.40
2019-05-22T19:07:14.913Z,3.35
2019-05-22T19:09:44.776Z,2.87
2019-05-22T19:12:14.952Z,2.90
2019-05-22T19:14:45.176Z,3.27
2019-05-22T19:17:15.332Z,3.02
2019-05-22T19:19:46.139Z,2.95
2019-05-22T19:22:16.759Z,2.50
2019-05-22T19:24:46.983Z,2.30
2019-05-22T19:27:16.856Z,2.72
2019-05-22T19:29:46.784Z,2.30
2019-05-22T19:32:17.343Z,2.42
2019-05-22T19:34:47.217Z,3.22
2019-05-22T19:37:17.130Z,2.67
2019-05-22T19:39:47.399Z,3.20
2019-05-22T19:42:17.473Z,3.58
2019-05-22T19:44:47.336Z,2.80
2019-05-22T19:47:17.468Z,3.20
2019-05-22T19:49:47.502Z,3.20
2019-05-22T19:52:22.060Z,3.30
2019-05-22T19:54:50.317Z,4.15
2019-05-22T19:57:20.418Z,3.67
2019-05-22T19:59:50.275Z,3.80
2019-05-22T20:02:20.250Z,4.20
2019-05-22T20:04:50.157Z,3.15
2019-05-22T20:07:21.855Z,4.10
2019-05-22T20:09:52.300Z,4.35
2019-05-22T20:12:25.002Z,4.12
2019-05-22T20:14:54.307Z,5.17
2019-05-22T20:17:25.360Z,4.20
2019-05-22T20:19:56.264Z,5.08
2019-05-22T20:22:26.999Z,5.28
2019-05-22T20:24:57.814Z,4.72
2019-05-22T20:27:28.157Z,4.97
2019-05-22T20:29:58.002Z,5.55
2019-05-22T20:32:28.325Z,5.30
2019-05-22T20:34:58.238Z,5.97
2019-05-22T20:37:28.171Z,5.90
2019-05-22T20:39:58.026Z,6.37
2019-05-22T20:42:28.469Z,6.53
2019-05-22T20:44:58.691Z,7.15
2019-05-22T20:47:29.538Z,6.37
2019-05-22T20:50:00.274Z,7.22
2019-05-22T20:52:30.868Z,6.90
2019-05-22T20:55:02.381Z,6.80
2019-05-22T20:57:34.003Z,7.03
2019-05-22T21:00:10.070Z,7.85
2019-05-22T21:02:40.423Z,8.08
2019-05-22T21:05:12.039Z,7.78
2019-05-22T21:07:46.394Z,9.13
2019-05-22T21:10:16.597Z,8.45
2019-05-22T21:12:46.518Z,8.83
2019-05-22T21:15:17.124Z,9.23
2019-05-22T21:17:47.005Z,8.43
2019-05-22T21:20:18.490Z,9.88
2019-05-22T21:22:49.044Z,10.13
2019-05-22T21:25:19.565Z,9.48
2019-05-22T21:27:49.710Z,9.58
2019-05-22T21:30:20.327Z,9.15
2019-05-22T21:32:50.199Z,10.10
2019-05-22T21:35:21.725Z,9.58
2019-05-22T21:37:51.975Z,9.28
2019-05-22T21:40:22.503Z,9.85
2019-05-22T21:42:52.345Z,9.00
2019-05-22T21:45:23.275Z,10.35
2019-05-22T21:47:53.327Z,10.32
2019-05-22T21:50:23.846Z,11.38
2019-05-22T21:52:53.724Z,10.95
2019-05-22T21:55:24.749Z,11.48
2019-05-22T21:57:54.610Z,7.90
2019-05-22T22:00:41.573Z,10.00
2019-05-22T22:03:13.218Z,12.20
2019-05-22T22:05:45.246Z,16.32
2019-05-22T22:08:15.469Z,14.30
2019-05-22T22:10:45.346Z,17.92
2019-05-22T22:13:15.578Z,17.77
2019-05-22T22:15:46.531Z,17.65
2019-05-22T22:18:18.029Z,16.05
2019-05-22T22:20:48.178Z,16.42
2019-05-22T22:23:19.126Z,17.65
2019-05-22T22:25:50.371Z,16.32
2019-05-22T22:28:20.785Z,13.60
2019-05-22T22:30:52.327Z,12.47
2019-05-22T22:33:25.610Z,12.78
2019-05-22T22:38:28.913Z,11.60
2019-05-22T22:40:59.362Z,11.38
2019-05-22T22:43:31.294Z,12.93
2019-05-22T22:46:09.093Z,12.30
2019-05-22T22:48:40.281Z,11.73
2019-05-22T22:51:12.709Z,11.43
2019-05-22T22:53:43.767Z,13.72
2019-05-22T22:56:14.139Z,13.25
2019-05-22T22:58:44.849Z,13.55
2019-05-22T23:01:25.703Z,12.58
2019-05-22T23:03:56.801Z,11.65
2019-05-22T23:06:28.530Z,14.63
2019-05-22T23:08:58.472Z,13.65
2019-05-22T23:11:28.703Z,14.38
2019-05-22T23:13:59.101Z,12.25
2019-05-22T23:16:29.049Z,14.20
2019-05-22T23:19:15.935Z,12.63
2019-05-22T23:21:46.540Z,13.48
2019-05-22T23:24:16.772Z,12.40
2019-05-22T23:26:47.606Z,12.03
2019-05-22T23:29:18.150Z,12.18
2019-05-22T23:31:48.684Z,12.65
2019-05-22T23:34:19.111Z,13.05
2019-05-22T23:36:49.476Z,13.45
2019-05-22T23:39:20.967Z,13.22
2019-05-22T23:41:51.928Z,11.90
2019-05-22T23:44:23.455Z,12.55
2019-05-22T23:46:54.007Z,12.03
2019-05-22T23:49:24.767Z,13.62
2019-05-22T23:51:54.614Z,10.72
2019-05-22T23:54:24.470Z,9.78
2019-05-22T23:56:54.404Z,9.45
2019-05-22T23:59:24.250Z,9.33
